sensor_id;sensor_type;location;lat;lon;timestamp;P1;durP1;ratioP1;P2;durP2;ratioP2
17504;SDS011;8870;50.950;11.762;2023-06-14T00:03:12;1.58;;;1.10;;
17504;SDS011;8870;50.950;11.762;2023-06-14T00:08:46;1.90;;;1.00;;
17504;SDS011;8870;50.950;11.762;2023-06-14T00:14:06;2.05;;;1.30;;
17504;SDS011;8870;50.950;11.762;2023-06-14T00:19:37;2.50;;;1.20;;
17504;SDS011;8870;50.950;11.762;2023-06-14T00:24:57;1.73;;;1.30;;
17504;SDS011;8870;50.950;11.762;2023-06-14T00:30:44;1.80;;;1.30;;
17504;SDS011;8870;50.950;11.762;2023-06-14T00:36:03;3.33;;;1.27;;
17504;SDS011;8870;50.950;11.762;2023-06-14T00:41:37;3.03;;;1.30;;
17504;SDS011;8870;50.950;11.762;2023-06-14T00:46:57;1.70;;;1.30;;
17504;SDS011;8870;50.950;11.762;2023-06-14T00:52:28;5.43;;;1.40;;
17504;SDS011;8870;50.950;11.762;2023-06-14T00:58:01;2.10;;;1.40;;
17504;SDS011;8870;50.950;11.762;2023-06-14T01:03:20;2.30;;;1.20;;
17504;SDS011;8870;50.950;11.762;2023-06-14T01:08:51;2.33;;;1.30;;
17504;SDS011;8870;50.950;11.762;2023-06-14T01:14:21;2.30;;;1.30;;
17504;SDS011;8870;50.950;11.762;2023-06-14T01:19:56;3.17;;;1.30;;
17504;SDS011;8870;50.950;11.762;2023-06-14T01:25:17;7.32;;;1.38;;
17504;SDS011;8870;50.950;11.762;2023-06-14T01:30:52;2.45;;;1.40;;
17504;SDS011;8870;50.950;11.762;2023-06-14T01:36:12;3.10;;;1.17;;
17504;SDS011;8870;50.950;11.762;2023-06-14T01:41:46;3.88;;;1.10;;
17504;SDS011;8870;50.950;11.762;2023-06-14T01:47:07;2.58;;;1.30;;
17504;SDS011;8870;50.950;11.762;2023-06-14T01:52:39;5.50;;;1.30;;
17504;SDS011;8870;50.950;11.762;2023-06-14T01:58:12;2.87;;;1.30;;
17504;SDS011;8870;50.950;11.762;2023-06-14T02:03:32;2.05;;;1.10;;
17504;SDS011;8870;50.950;11.762;2023-06-14T02:08:57;1.85;;;1.20;;
17504;SDS011;8870;50.950;11.762;2023-06-14T02:14:24;2.97;;;1.15;;
17504;SDS011;8870;50.950;11.762;2023-06-14T02:19:43;2.05;;;1.10;;
17504;SDS011;8870;50.950;11.762;2023-06-14T02:25:01;3.22;;;1.20;;
17504;SDS011;8870;50.950;11.762;2023-06-14T02:30:34;4.50;;;1.20;;
17504;SDS011;8870;50.950;11.762;2023-06-14T02:35:57;2.20;;;1.08;;
17504;SDS011;8870;50.950;11.762;2023-06-14T02:41:28;3.33;;;1.27;;
17504;SDS011;8870;50.950;11.762;2023-06-14T02:46:48;3.08;;;1.25;;
17504;SDS011;8870;50.950;11.762;2023-06-14T02:52:20;1.85;;;1.13;;
17504;SDS011;8870;50.950;11.762;2023-06-14T02:57:51;2.00;;;1.07;;
17504;SDS011;8870;50.950;11.762;2023-06-14T03:03:12;3.05;;;1.00;;
17504;SDS011;8870;50.950;11.762;2023-06-14T03:08:46;1.40;;;1.00;;
17504;SDS011;8870;50.950;11.762;2023-06-14T03:14:04;2.60;;;1.10;;
17504;SDS011;8870;50.950;11.762;2023-06-14T03:19:38;2.72;;;1.02;;
17504;SDS011;8870;50.950;11.762;2023-06-14T03:24:57;1.48;;;1.00;;
17504;SDS011;8870;50.950;11.762;2023-06-14T03:30:32;3.17;;;1.10;;
17504;SDS011;8870;50.950;11.762;2023-06-14T03:35:52;5.28;;;1.20;;
17504;SDS011;8870;50.950;11.762;2023-06-14T03:41:25;2.58;;;1.23;;
17504;SDS011;8870;50.950;11.762;2023-06-14T03:46:43;2.13;;;0.93;;
17504;SDS011;8870;50.950;11.762;2023-06-14T03:52:17;4.32;;;1.20;;
17504;SDS011;8870;50.950;11.762;2023-06-14T03:57:36;5.07;;;1.10;;
17504;SDS011;8870;50.950;11.762;2023-06-14T04:03:09;1.85;;;1.10;;
17504;SDS011;8870;50.950;11.762;2023-06-14T04:08:31;2.83;;;1.08;;
17504;SDS011;8870;50.950;11.762;2023-06-14T04:14:05;1.95;;;1.10;;
17504;SDS011;8870;50.950;11.762;2023-06-14T04:19:23;2.10;;;1.10;;
17504;SDS011;8870;50.950;11.762;2023-06-14T04:24:58;1.45;;;1.02;;
17504;SDS011;8870;50.950;11.762;2023-06-14T04:30:18;2.45;;;1.15;;
17504;SDS011;8870;50.950;11.762;2023-06-14T04:35:55;3.88;;;1.20;;
17504;SDS011;8870;50.950;11.762;2023-06-14T04:41:30;2.17;;;1.27;;
17504;SDS011;8870;50.950;11.762;2023-06-14T04:46:50;2.08;;;1.20;;
17504;SDS011;8870;50.950;11.762;2023-06-14T04:52:23;4.18;;;1.25;;
17504;SDS011;8870;50.950;11.762;2023-06-14T04:57:57;1.90;;;1.00;;
17504;SDS011;8870;50.950;11.762;2023-06-14T05:03:16;1.50;;;1.13;;
17504;SDS011;8870;50.950;11.762;2023-06-14T05:08:48;2.13;;;1.20;;
17504;SDS011;8870;50.950;11.762;2023-06-14T05:14:09;2.70;;;1.00;;
17504;SDS011;8870;50.950;11.762;2023-06-14T05:19:41;2.25;;;1.10;;
17504;SDS011;8870;50.950;11.762;2023-06-14T05:24:59;2.00;;;1.10;;
17504;SDS011;8870;50.950;11.762;2023-06-14T05:30:32;1.60;;;1.10;;
17504;SDS011;8870;50.950;11.762;2023-06-14T05:35:51;1.63;;;1.10;;
17504;SDS011;8870;50.950;11.762;2023-06-14T05:41:23;1.85;;;1.20;;
17504;SDS011;8870;50.950;11.762;2023-06-14T05:46:45;2.35;;;1.23;;
17504;SDS011;8870;50.950;11.762;2023-06-14T05:52:16;2.15;;;1.20;;
17504;SDS011;8870;50.950;11.762;2023-06-14T05:57:48;2.17;;;1.00;;
17504;SDS011;8870;50.950;11.762;2023-06-14T06:03:08;2.58;;;1.10;;
17504;SDS011;8870;50.950;11.762;2023-06-14T06:08:40;2.05;;;1.20;;
17504;SDS011;8870;50.950;11.762;2023-06-14T06:13:58;1.80;;;1.20;;
17504;SDS011;8870;50.950;11.762;2023-06-14T06:19:31;3.45;;;1.30;;
17504;SDS011;8870;50.950;11.762;2023-06-14T06:24:50;2.95;;;1.20;;
17504;SDS011;8870;50.950;11.762;2023-06-14T06:30:21;2.42;;;1.23;;
17504;SDS011;8870;50.950;11.762;2023-06-14T06:35:42;2.90;;;1.30;;
17504;SDS011;8870;50.950;11.762;2023-06-14T06:41:13;2.17;;;1.40;;
17504;SDS011;8870;50.950;11.762;2023-06-14T06:46:31;2.42;;;1.30;;
17504;SDS011;8870;50.950;11.762;2023-06-14T06:52:07;1.75;;;1.25;;
17504;SDS011;8870;50.950;11.762;2023-06-14T06:57:39;1.67;;;1.30;;
17504;SDS011;8870;50.950;11.762;2023-06-14T07:02:57;2.35;;;1.40;;
17504;SDS011;8870;50.950;11.762;2023-06-14T07:08:30;3.70;;;1.40;;
17504;SDS011;8870;50.950;11.762;2023-06-14T07:13:49;2.65;;;1.35;;
17504;SDS011;8870;50.950;11.762;2023-06-14T07:19:20;1.48;;;1.20;;
17504;SDS011;8870;50.950;11.762;2023-06-14T07:24:43;4.55;;;1.50;;
17504;SDS011;8870;50.950;11.762;2023-06-14T07:30:15;2.38;;;1.40;;
17504;SDS011;8870;50.950;11.762;2023-06-14T07:35:34;2.17;;;1.25;;
17504;SDS011;8870;50.950;11.762;2023-06-14T07:41:07;3.30;;;1.27;;
17504;SDS011;8870;50.950;11.762;2023-06-14T07:46:26;3.47;;;1.40;;
17504;SDS011;8870;50.950;11.762;2023-06-14T07:52:00;3.22;;;1.20;;
17504;SDS011;8870;50.950;11.762;2023-06-14T07:57:22;2.65;;;1.38;;
17504;SDS011;8870;50.950;11.762;2023-06-14T08:02:53;2.28;;;1.23;;
17504;SDS011;8870;50.950;11.762;2023-06-14T08:08:13;2.83;;;1.05;;
17504;SDS011;8870;50.950;11.762;2023-06-14T08:13:46;2.38;;;1.35;;
17504;SDS011;8870;50.950;11.762;2023-06-14T08:19:05;1.85;;;1.20;;
17504;SDS011;8870;50.950;11.762;2023-06-14T08:24:38;4.75;;;1.30;;
17504;SDS011;8870;50.950;11.762;2023-06-14T08:29:59;2.72;;;1.27;;
17504;SDS011;8870;50.950;11.762;2023-06-14T08:35:33;1.60;;;1.10;;
17504;SDS011;8870;50.950;11.762;2023-06-14T08:40:52;5.28;;;1.20;;
17504;SDS011;8870;50.950;11.762;2023-06-14T08:46:31;2.20;;;1.20;;
17504;SDS011;8870;50.950;11.762;2023-06-14T08:51:53;2.10;;;1.10;;
17504;SDS011;8870;50.950;11.762;2023-06-14T08:57:28;4.50;;;1.27;;
17504;SDS011;8870;50.950;11.762;2023-06-14T09:02:52;2.38;;;1.10;;
17504;SDS011;8870;50.950;11.762;2023-06-14T09:08:25;3.15;;;1.10;;
17504;SDS011;8870;50.950;11.762;2023-06-14T09:13:45;4.40;;;1.00;;
17504;SDS011;8870;50.950;11.762;2023-06-14T09:19:24;2.22;;;1.17;;
17504;SDS011;8870;50.950;11.762;2023-06-14T09:24:42;5.80;;;0.90;;
17504;SDS011;8870;50.950;11.762;2023-06-14T09:30:13;1.38;;;0.85;;
17504;SDS011;8870;50.950;11.762;2023-06-14T09:35:34;1.85;;;0.80;;
17504;SDS011;8870;50.950;11.762;2023-06-14T09:41:08;3.15;;;0.93;;
17504;SDS011;8870;50.950;11.762;2023-06-14T09:46:26;0.90;;;0.80;;
17504;SDS011;8870;50.950;11.762;2023-06-14T09:52:00;1.77;;;0.90;;
17504;SDS011;8870;50.950;11.762;2023-06-14T09:57:21;4.25;;;0.98;;
17504;SDS011;8870;50.950;11.762;2023-06-14T10:02:57;1.63;;;1.00;;
17504;SDS011;8870;50.950;11.762;2023-06-14T10:08:23;2.63;;;0.82;;
17504;SDS011;8870;50.950;11.762;2023-06-14T10:13:58;0.98;;;0.70;;
17504;SDS011;8870;50.950;11.762;2023-06-14T10:19:18;0.80;;;0.80;;
17504;SDS011;8870;50.950;11.762;2023-06-14T10:24:59;2.20;;;0.80;;
17504;SDS011;8870;50.950;11.762;2023-06-14T10:30:18;1.65;;;0.73;;
17504;SDS011;8870;50.950;11.762;2023-06-14T10:36:06;5.38;;;0.90;;
17504;SDS011;8870;50.950;11.762;2023-06-14T10:41:32;4.72;;;0.77;;
17504;SDS011;8870;50.950;11.762;2023-06-14T10:47:06;3.10;;;0.80;;
17504;SDS011;8870;50.950;11.762;2023-06-14T10:52:27;4.00;;;0.90;;
17504;SDS011;8870;50.950;11.762;2023-06-14T10:58:03;1.65;;;0.82;;
17504;SDS011;8870;50.950;11.762;2023-06-14T11:03:36;3.72;;;0.70;;
17504;SDS011;8870;50.950;11.762;2023-06-14T11:09:38;4.20;;;0.90;;
17504;SDS011;8870;50.950;11.762;2023-06-14T11:15:12;2.08;;;0.90;;
17504;SDS011;8870;50.950;11.762;2023-06-14T11:20:45;3.00;;;0.70;;
17504;SDS011;8870;50.950;11.762;2023-06-14T11:26:04;1.10;;;0.70;;
17504;SDS011;8870;50.950;11.762;2023-06-14T11:31:37;3.40;;;1.00;;
17504;SDS011;8870;50.950;11.762;2023-06-14T11:37:01;4.13;;;0.90;;
17504;SDS011;8870;50.950;11.762;2023-06-14T11:42:32;1.35;;;0.80;;
17504;SDS011;8870;50.950;11.762;2023-06-14T11:47:53;1.77;;;1.00;;
17504;SDS011;8870;50.950;11.762;2023-06-14T11:53:25;2.90;;;0.90;;
17504;SDS011;8870;50.950;11.762;2023-06-14T11:58:43;3.42;;;0.80;;
17504;SDS011;8870;50.950;11.762;2023-06-14T12:04:22;1.40;;;0.90;;
17504;SDS011;8870;50.950;11.762;2023-06-14T12:09:41;1.73;;;0.95;;
17504;SDS011;8870;50.950;11.762;2023-06-14T12:15:13;2.90;;;1.00;;
17504;SDS011;8870;50.950;11.762;2023-06-14T12:20:34;4.22;;;0.80;;
17504;SDS011;8870;50.950;11.762;2023-06-14T12:26:07;2.63;;;0.95;;
17504;SDS011;8870;50.950;11.762;2023-06-14T12:31:25;1.40;;;0.77;;
17504;SDS011;8870;50.950;11.762;2023-06-14T12:37:00;2.83;;;0.85;;
17504;SDS011;8870;50.950;11.762;2023-06-14T12:42:19;2.15;;;0.65;;
17504;SDS011;8870;50.950;11.762;2023-06-14T12:47:50;1.85;;;0.70;;
17504;SDS011;8870;50.950;11.762;2023-06-14T12:53:19;2.50;;;0.70;;
17504;SDS011;8870;50.950;11.762;2023-06-14T12:58:51;4.60;;;0.85;;
17504;SDS011;8870;50.950;11.762;2023-06-14T13:04:09;3.55;;;0.60;;
17504;SDS011;8870;50.950;11.762;2023-06-14T13:09:43;3.47;;;1.00;;
17504;SDS011;8870;50.950;11.762;2023-06-14T13:15:01;3.13;;;0.90;;
17504;SDS011;8870;50.950;11.762;2023-06-14T13:20:32;2.72;;;0.80;;
17504;SDS011;8870;50.950;11.762;2023-06-14T13:25:53;2.85;;;0.70;;
17504;SDS011;8870;50.950;11.762;2023-06-14T13:31:24;2.05;;;0.52;;
17504;SDS011;8870;50.950;11.762;2023-06-14T13:36:42;1.20;;;0.70;;
17504;SDS011;8870;50.950;11.762;2023-06-14T13:42:16;1.20;;;0.68;;
17504;SDS011;8870;50.950;11.762;2023-06-14T13:47:34;0.63;;;0.60;;
17504;SDS011;8870;50.950;11.762;2023-06-14T13:53:20;1.25;;;0.60;;
17504;SDS011;8870;50.950;11.762;2023-06-14T13:59:08;2.15;;;0.60;;
17504;SDS011;8870;50.950;11.762;2023-06-14T14:04:40;0.70;;;0.55;;
17504;SDS011;8870;50.950;11.762;2023-06-14T14:10:29;1.25;;;0.60;;
17504;SDS011;8870;50.950;11.762;2023-06-14T14:16:10;4.45;;;0.70;;
17504;SDS011;8870;50.950;11.762;2023-06-14T14:21:56;1.17;;;0.50;;
17504;SDS011;8870;50.950;11.762;2023-06-14T14:27:29;0.47;;;0.47;;
17504;SDS011;8870;50.950;11.762;2023-06-14T14:33:18;2.95;;;0.60;;
17504;SDS011;8870;50.950;11.762;2023-06-14T14:38:50;1.33;;;0.40;;
17504;SDS011;8870;50.950;11.762;2023-06-14T14:44:21;1.13;;;0.50;;
17504;SDS011;8870;50.950;11.762;2023-06-14T14:49:42;1.00;;;0.40;;
17504;SDS011;8870;50.950;11.762;2023-06-14T14:55:13;0.90;;;0.50;;
17504;SDS011;8870;50.950;11.762;2023-06-14T15:00:31;3.00;;;0.40;;
17504;SDS011;8870;50.950;11.762;2023-06-14T15:06:05;2.65;;;0.50;;
17504;SDS011;8870;50.950;11.762;2023-06-14T15:11:23;1.05;;;0.45;;
17504;SDS011;8870;50.950;11.762;2023-06-14T15:16:54;0.82;;;0.47;;
17504;SDS011;8870;50.950;11.762;2023-06-14T15:22:18;1.33;;;0.50;;
17504;SDS011;8870;50.950;11.762;2023-06-14T15:27:49;1.90;;;0.50;;
17504;SDS011;8870;50.950;11.762;2023-06-14T15:33:07;0.98;;;0.70;;
17504;SDS011;8870;50.950;11.762;2023-06-14T15:38:41;5.20;;;0.70;;
17504;SDS011;8870;50.950;11.762;2023-06-14T15:43:59;2.05;;;0.65;;
17504;SDS011;8870;50.950;11.762;2023-06-14T15:49:31;0.60;;;0.60;;
17504;SDS011;8870;50.950;11.762;2023-06-14T15:54:59;1.70;;;0.70;;
17504;SDS011;8870;50.950;11.762;2023-06-14T16:00:31;2.67;;;0.60;;
17504;SDS011;8870;50.950;11.762;2023-06-14T16:05:49;2.47;;;0.77;;
17504;SDS011;8870;50.950;11.762;2023-06-14T16:11:23;1.20;;;1.00;;
17504;SDS011;8870;50.950;11.762;2023-06-14T16:16:41;3.67;;;0.80;;
17504;SDS011;8870;50.950;11.762;2023-06-14T16:22:12;1.33;;;0.52;;
17504;SDS011;8870;50.950;11.762;2023-06-14T16:27:33;1.27;;;0.70;;
17504;SDS011;8870;50.950;11.762;2023-06-14T16:33:04;1.50;;;0.55;;
17504;SDS011;8870;50.950;11.762;2023-06-14T16:38:29;2.40;;;0.60;;
17504;SDS011;8870;50.950;11.762;2023-06-14T16:43:56;0.57;;;0.57;;
17504;SDS011;8870;50.950;11.762;2023-06-14T16:49:25;3.25;;;0.88;;
17504;SDS011;8870;50.950;11.762;2023-06-14T16:54:50;2.67;;;0.50;;
17504;SDS011;8870;50.950;11.762;2023-06-14T17:00:25;1.77;;;0.63;;
17504;SDS011;8870;50.950;11.762;2023-06-14T17:05:53;1.17;;;0.60;;
17504;SDS011;8870;50.950;11.762;2023-06-14T17:11:24;2.67;;;0.50;;
17504;SDS011;8870;50.950;11.762;2023-06-14T17:16:45;0.63;;;0.60;;
17504;SDS011;8870;50.950;11.762;2023-06-14T17:22:16;1.65;;;0.80;;
17504;SDS011;8870;50.950;11.762;2023-06-14T17:27:34;2.85;;;0.60;;
17504;SDS011;8870;50.950;11.762;2023-06-14T17:33:10;2.05;;;0.60;;
17504;SDS011;8870;50.950;11.762;2023-06-14T17:38:28;1.08;;;0.50;;
17504;SDS011;8870;50.950;11.762;2023-06-14T17:44:00;1.23;;;0.60;;
17504;SDS011;8870;50.950;11.762;2023-06-14T17:49:21;1.63;;;0.60;;
17504;SDS011;8870;50.950;11.762;2023-06-14T17:54:53;2.75;;;0.60;;
17504;SDS011;8870;50.950;11.762;2023-06-14T18:00:12;1.50;;;0.60;;
17504;SDS011;8870;50.950;11.762;2023-06-14T18:05:47;0.63;;;0.57;;
17504;SDS011;8870;50.950;11.762;2023-06-14T18:11:05;0.90;;;0.60;;
17504;SDS011;8870;50.950;11.762;2023-06-14T18:16:36;0.98;;;0.60;;
17504;SDS011;8870;50.950;11.762;2023-06-14T18:21:58;0.95;;;0.60;;
17504;SDS011;8870;50.950;11.762;2023-06-14T18:27:29;1.20;;;0.70;;
17504;SDS011;8870;50.950;11.762;2023-06-14T18:32:47;1.08;;;0.57;;
17504;SDS011;8870;50.950;11.762;2023-06-14T18:38:25;0.45;;;0.45;;
17504;SDS011;8870;50.950;11.762;2023-06-14T18:43:43;2.83;;;0.73;;
17504;SDS011;8870;50.950;11.762;2023-06-14T18:49:15;0.60;;;0.60;;
17504;SDS011;8870;50.950;11.762;2023-06-14T18:54:49;1.25;;;0.80;;
17504;SDS011;8870;50.950;11.762;2023-06-14T19:00:11;1.50;;;0.68;;
17504;SDS011;8870;50.950;11.762;2023-06-14T19:05:43;0.57;;;0.50;;
17504;SDS011;8870;50.950;11.762;2023-06-14T19:11:04;1.10;;;0.68;;
17504;SDS011;8870;50.950;11.762;2023-06-14T19:16:36;1.83;;;0.80;;
17504;SDS011;8870;50.950;11.762;2023-06-14T19:21:54;0.95;;;0.70;;
17504;SDS011;8870;50.950;11.762;2023-06-14T19:27:29;1.50;;;0.90;;
17504;SDS011;8870;50.950;11.762;2023-06-14T19:32:49;0.80;;;0.70;;
17504;SDS011;8870;50.950;11.762;2023-06-14T19:38:20;1.25;;;0.65;;
17504;SDS011;8870;50.950;11.762;2023-06-14T19:43:41;0.85;;;0.70;;
17504;SDS011;8870;50.950;11.762;2023-06-14T19:49:12;1.98;;;0.90;;
17504;SDS011;8870;50.950;11.762;2023-06-14T19:54:30;1.77;;;0.80;;
17504;SDS011;8870;50.950;11.762;2023-06-14T20:00:04;2.08;;;0.70;;
17504;SDS011;8870;50.950;11.762;2023-06-14T20:05:23;1.00;;;0.90;;
17504;SDS011;8870;50.950;11.762;2023-06-14T20:10:55;1.63;;;0.90;;
17504;SDS011;8870;50.950;11.762;2023-06-14T20:16:16;1.35;;;0.80;;
17504;SDS011;8870;50.950;11.762;2023-06-14T20:21:47;3.53;;;0.90;;
17504;SDS011;8870;50.950;11.762;2023-06-14T20:27:06;1.73;;;0.77;;
17504;SDS011;8870;50.950;11.762;2023-06-14T20:32:41;2.25;;;0.90;;
17504;SDS011;8870;50.950;11.762;2023-06-14T20:37:59;1.75;;;0.80;;
17504;SDS011;8870;50.950;11.762;2023-06-14T20:43:30;0.93;;;0.82;;
17504;SDS011;8870;50.950;11.762;2023-06-14T20:48:52;1.23;;;0.80;;
17504;SDS011;8870;50.950;11.762;2023-06-14T20:54:23;0.88;;;0.80;;
17504;SDS011;8870;50.950;11.762;2023-06-14T20:59:55;1.52;;;0.95;;
17504;SDS011;8870;50.950;11.762;2023-06-14T21:05:17;3.67;;;1.20;;
17504;SDS011;8870;50.950;11.762;2023-06-14T21:10:48;1.27;;;0.90;;
17504;SDS011;8870;50.950;11.762;2023-06-14T21:16:08;1.05;;;0.90;;
17504;SDS011;8870;50.950;11.762;2023-06-14T21:21:42;0.88;;;0.88;;
17504;SDS011;8870;50.950;11.762;2023-06-14T21:27:01;1.42;;;0.90;;
17504;SDS011;8870;50.950;11.762;2023-06-14T21:32:33;2.42;;;0.90;;
17504;SDS011;8870;50.950;11.762;2023-06-14T21:37:54;3.00;;;1.00;;
17504;SDS011;8870;50.950;11.762;2023-06-14T21:43:25;2.78;;;1.05;;
17504;SDS011;8870;50.950;11.762;2023-06-14T21:48:44;1.45;;;0.90;;
17504;SDS011;8870;50.950;11.762;2023-06-14T21:54:17;2.17;;;0.95;;
17504;SDS011;8870;50.950;11.762;2023-06-14T21:59:48;1.02;;;0.80;;
17504;SDS011;8870;50.950;11.762;2023-06-14T22:05:07;0.95;;;0.80;;
17504;SDS011;8870;50.950;11.762;2023-06-14T22:10:42;1.75;;;1.10;;
17504;SDS011;8870;50.950;11.762;2023-06-14T22:16:01;1.25;;;1.10;;
17504;SDS011;8870;50.950;11.762;2023-06-14T22:21:31;2.03;;;1.17;;
17504;SDS011;8870;50.950;11.762;2023-06-14T22:26:54;3.33;;;1.10;;
17504;SDS011;8870;50.950;11.762;2023-06-14T22:32:26;1.20;;;1.10;;
17504;SDS011;8870;50.950;11.762;2023-06-14T22:37:47;1.65;;;1.00;;
17504;SDS011;8870;50.950;11.762;2023-06-14T22:43:20;2.28;;;0.95;;
17504;SDS011;8870;50.950;11.762;2023-06-14T22:48:39;1.35;;;1.10;;
17504;SDS011;8870;50.950;11.762;2023-06-14T22:54:11;4.78;;;1.15;;
17504;SDS011;8870;50.950;11.762;2023-06-14T22:59:45;3.03;;;1.10;;
17504;SDS011;8870;50.950;11.762;2023-06-14T23:05:04;1.67;;;1.05;;
17504;SDS011;8870;50.950;11.762;2023-06-14T23:10:38;2.55;;;1.20;;
17504;SDS011;8870;50.950;11.762;2023-06-14T23:15:59;2.20;;;1.00;;
17504;SDS011;8870;50.950;11.762;2023-06-14T23:21:34;1.77;;;1.05;;
17504;SDS011;8870;50.950;11.762;2023-06-14T23:26:54;1.17;;;1.08;;
17504;SDS011;8870;50.950;11.762;2023-06-14T23:32:29;2.35;;;1.17;;
17504;SDS011;8870;50.950;11.762;2023-06-14T23:37:48;1.45;;;1.10;;
17504;SDS011;8870;50.950;11.762;2023-06-14T23:43:19;1.88;;;1.20;;
17504;SDS011;8870;50.950;11.762;2023-06-14T23:48:41;1.25;;;1.15;;
17504;SDS011;8870;50.950;11.762;2023-06-14T23:54:12;3.42;;;1.27;;
17504;SDS011;8870;50.950;11.762;2023-06-14T23:59:44;2.92;;;1.27;;
